Time;durP1;ratioP1;P1;durP2;ratioP2;P2;SDS_P1;SDS_P2;PMS_P1;PMS_P2;Temp;Humidity;BMP_temperature;BMP_pressure;BME280_temperature;BME280_humidity;BME280_pressure;Samples;Min_cycle;Max_cycle;Signal;HPM_P1;HPM_P2
2021/11/02 00:00:37;;;;;;;;;4.50;4.50;;;;;18.84;46.23;99650.34;5075932;27;51157;-49
2021/11/02 00:03:04;;;;;;;;;7.50;6.75;;;;;18.86;46.30;99661.06;5074761;27;51968;-46
2021/11/02 00:05:30;;;;;;;;;5.50;4.25;;;;;18.84;46.21;99661.31;5075173;27;51152;-44
2021/11/02 00:07:56;;;;;;;;;4.00;4.00;;;;;18.85;46.16;99659.41;5074055;28;51171;-48
2021/11/02 00:10:21;;;;;;;;;5.00;4.75;;;;;18.83;46.18;99662.41;5075056;27;51104;-51
2021/11/02 00:12:47;;;;;;;;;5.25;4.25;;;;;18.84;46.29;99652.25;5077170;27;51463;-47
2021/11/02 00:15:13;;;;;;;;;6.00;4.00;;;;;18.84;46.31;99655.84;5078557;27;51093;-50
2021/11/02 00:17:40;;;;;;;;;4.25;4.25;;;;;18.83;46.45;99648.69;5078581;27;51205;-47
2021/11/02 00:20:11;;;;;;;;;2.00;2.00;;;;;18.83;46.34;99648.69;5078921;27;51394;-51
2021/11/02 00:22:38;;;;;;;;;3.50;2.50;;;;;18.84;46.24;99652.25;5078183;27;51163;-48
2021/11/02 00:25:07;;;;;;;;;6.50;4.75;;;;;18.84;46.03;99646.75;5078375;28;51111;-48
2021/11/02 00:27:39;;;;;;;;;4.25;4.00;;;;;18.82;46.43;99644.25;5018410;27;51020;-49
2021/11/02 00:30:09;;;;;;;;;3.00;3.00;;;;;18.83;46.27;99645.09;4995188;28;51195;-44
2021/11/02 00:32:34;;;;;;;;;5.00;3.25;;;;;18.83;46.26;99643.19;4994374;28;51047;-43
2021/11/02 00:34:59;;;;;;;;;2.00;2.00;;;;;18.83;46.27;99643.19;4994603;28;50913;-45
2021/11/02 00:37:25;;;;;;;;;3.25;3.25;;;;;18.83;46.13;99637.69;4995040;28;51500;-48
2021/11/02 00:39:51;;;;;;;;;4.00;4.00;;;;;18.83;46.32;99639.63;4994909;28;51244;-47
2021/11/02 00:42:16;;;;;;;;;4.00;4.00;;;;;18.83;46.24;99645.94;4994640;28;51069;-48
2021/11/02 00:44:45;;;;;;;;;3.50;3.50;;;;;18.83;46.37;99634.97;4994544;28;51116;-47
2021/11/02 00:47:13;;;;;;;;;3.25;3.00;;;;;18.82;46.21;99633.28;4994666;28;50994;-47
2021/11/02 00:49:39;;;;;;;;;3.25;3.25;;;;;18.83;46.25;99628.63;4994762;28;51049;-49
2021/11/02 00:52:04;;;;;;;;;2.75;2.25;;;;;18.82;46.13;99625.06;4994502;27;50964;-47
2021/11/02 00:54:30;;;;;;;;;4.25;2.50;;;;;18.82;46.12;99624.22;4994466;28;51058;-51
2021/11/02 00:56:55;;;;;;;;;3.00;2.00;;;;;18.82;46.35;99625.06;4994819;28;51034;-45
2021/11/02 00:59:20;;;;;;;;;3.00;3.00;;;;;18.80;46.00;99619.00;4994926;28;51119;-50
2021/11/02 01:01:46;;;;;;;;;2.00;2.00;;;;;18.82;46.16;99613.25;4994516;28;51032;-46
2021/11/02 01:04:11;;;;;;;;;3.00;1.75;;;;;18.81;46.33;99609.69;4994382;28;51047;-48
2021/11/02 01:06:37;;;;;;;;;3.00;2.00;;;;;18.80;46.38;99601.69;4994898;28;51356;-46
2021/11/02 01:09:04;;;;;;;;;3.25;2.00;;;;;18.81;46.44;99601.44;4994553;28;50996;-46
2021/11/02 01:11:30;;;;;;;;;1.00;1.00;;;;;18.80;46.42;99608.00;4993969;28;52076;-46
2021/11/02 01:13:55;;;;;;;;;5.00;3.00;;;;;18.81;46.37;99615.16;4994455;28;51118;-48
2021/11/02 01:16:24;;;;;;;;;2.00;2.00;;;;;18.79;46.52;99606.34;4994587;28;51507;-46
2021/11/02 01:18:51;;;;;;;;;1.75;1.75;;;;;18.81;46.17;99608.84;4994075;28;50985;-50
2021/11/02 01:21:16;;;;;;;;;4.00;2.50;;;;;18.80;46.56;99601.69;4994019;28;51736;-48
2021/11/02 01:23:42;;;;;;;;;0.75;0.75;;;;;18.80;46.28;99608.00;4993622;28;51243;-50
2021/11/02 01:26:07;;;;;;;;;1.50;1.50;;;;;18.81;46.21;99606.09;5004866;28;51187;-43
2021/11/02 01:28:32;;;;;;;;;1.75;0.25;;;;;18.80;46.23;99608.00;5077632;27;51174;-44
2021/11/02 01:30:58;;;;;;;;;1.00;1.00;;;;;18.80;46.29;99601.69;5077042;27;51009;-47
2021/11/02 01:33:24;;;;;;;;;3.25;1.75;;;;;18.79;46.19;99600.84;5076963;27;51823;-43
2021/11/02 01:35:49;;;;;;;;;2.00;2.00;;;;;18.79;46.25;99600.03;5077158;27;51163;-42
2021/11/02 01:38:18;;;;;;;;;2.50;1.50;;;;;18.79;46.39;99600.84;5077364;27;51212;-46
2021/11/02 01:40:44;;;;;;;;;1.75;1.00;;;;;18.78;46.15;99599.19;5077043;27;51609;-50
2021/11/02 01:43:11;;;;;;;;;4.25;1.50;;;;;18.79;46.29;99606.34;5075676;28;51080;-50
2021/11/02 01:45:36;;;;;;;;;1.25;1.25;;;;;18.78;46.16;99599.19;5077256;27;51350;-44
2021/11/02 01:48:02;;;;;;;;;1.25;1.25;;;;;18.78;46.22;99592.88;5076930;27;51078;-47
2021/11/02 01:50:28;;;;;;;;;0.75;0.75;;;;;18.78;46.13;99593.72;5076724;27;51064;-47
2021/11/02 01:52:54;;;;;;;;;2.75;1.00;;;;;18.78;46.34;99598.38;5076832;27;51235;-47
2021/11/02 01:55:20;;;;;;;;;2.50;0.75;;;;;18.78;46.45;99601.09;5076983;27;51083;-46
2021/11/02 01:57:46;;;;;;;;;3.25;0.25;;;;;18.77;46.45;99597.53;5076931;27;51161;-43
2021/11/02 02:00:15;;;;;;;;;1.00;1.00;;;;;18.78;46.21;99601.09;5076673;27;51914;-46
2021/11/02 02:02:55;;;;;;;;;1.75;1.75;;;;;18.78;46.41;99606.59;5076793;27;50988;-51
2021/11/02 02:05:41;;;;;;;;;0.75;0.75;;;;;18.77;46.23;99605.75;5077220;27;51299;-50
2021/11/02 02:08:30;;;;;;;;;0.75;0.75;;;;;18.77;46.38;99608.50;5076716;27;51270;-46
2021/11/02 02:11:22;;;;;;;;;1.00;0.75;;;;;18.77;46.28;99604.94;5076402;27;51244;-46
2021/11/02 02:14:08;;;;;;;;;0.00;0.00;;;;;18.77;46.06;99604.94;5067669;27;50963;-46
2021/11/02 02:16:40;;;;;;;;;0.25;0.25;;;;;18.77;46.35;99610.41;5076503;27;51151;-45
2021/11/02 02:19:37;;;;;;;;;1.50;1.00;;;;;18.75;46.23;99603.22;5076254;27;51099;-48
2021/11/02 02:22:26;;;;;;;;;1.00;1.00;;;;;18.74;46.23;99604.31;5076072;27;51128;-43
2021/11/02 02:25:10;;;;;;;;;0.50;0.50;;;;;18.74;46.32;99604.31;5076716;27;51411;-44
2021/11/02 02:28:02;;;;;;;;;0.50;0.50;;;;;18.75;46.31;99607.88;5015242;28;51082;-49
2021/11/02 02:30:30;;;;;;;;;2.00;0.00;;;;;18.75;46.55;99613.38;4993842;28;51179;-47
2021/11/02 02:32:56;;;;;;;;;0.50;0.00;;;;;18.75;46.16;99607.88;4993096;28;52071;-43
2021/11/02 02:35:22;;;;;;;;;0.50;0.00;;;;;18.74;46.29;99600.72;4991983;28;51177;-45
2021/11/02 02:37:50;;;;;;;;;0.75;0.75;;;;;18.73;46.36;99608.13;4993130;28;51070;-45
2021/11/02 02:40:18;;;;;;;;;0.00;0.00;;;;;18.74;46.58;99603.47;5008683;28;51155;-43
2021/11/02 02:42:46;;;;;;;;;0.50;0.50;;;;;18.74;46.09;99603.47;4993168;28;51825;-46
2021/11/02 02:45:15;;;;;;;;;1.25;1.25;;;;;18.74;46.51;99603.47;4992110;28;51463;-47
2021/11/02 02:47:44;;;;;;;;;1.25;0.00;;;;;18.74;46.55;99601.56;4993172;28;51126;-47
2021/11/02 02:50:11;;;;;;;;;1.25;1.00;;;;;18.74;46.19;99600.72;4992094;28;51415;-47
2021/11/02 02:52:39;;;;;;;;;0.75;0.50;;;;;18.74;46.29;99598.00;4993042;28;51829;-44
2021/11/02 02:55:07;;;;;;;;;0.00;0.00;;;;;18.74;46.27;99595.25;4993504;28;51207;-48
2021/11/02 02:57:33;;;;;;;;;2.50;1.50;;;;;18.74;46.11;99598.00;4993016;28;51179;-46
2021/11/02 02:59:59;;;;;;;;;1.00;1.00;;;;;18.74;46.27;99590.59;4993339;28;51272;-44
2021/11/02 03:02:30;;;;;;;;;0.75;0.75;;;;;18.73;46.23;99585.34;4992962;28;51293;-47
2021/11/02 03:04:58;;;;;;;;;0.00;0.00;;;;;18.73;46.25;99588.94;4992941;28;51051;-46
2021/11/02 03:07:24;;;;;;;;;0.00;0.00;;;;;18.73;46.25;99583.44;4993193;28;51011;-46
2021/11/02 03:09:50;;;;;;;;;0.00;0.00;;;;;18.73;46.36;99579.88;4993279;27;51349;-46
2021/11/02 03:12:30;;;;;;;;;0.00;0.00;;;;;18.73;46.27;99579.88;4992772;28;51322;-46
2021/11/02 03:15:11;;;;;;;;;0.00;0.00;;;;;18.73;46.40;99580.69;4992821;28;51121;-49
2021/11/02 03:17:49;;;;;;;;;0.00;0.00;;;;;18.73;46.26;99577.13;4992732;28;51040;-47
2021/11/02 03:58:58;;;;;;;;;0.00;0.00;;;;;18.70;46.13;99589.41;5078740;27;51106;-48
2021/11/02 04:01:47;;;;;;;;;1.00;1.00;;;;;18.71;46.30;99595.72;5078917;27;51002;-47
2021/11/02 04:24:15;;;;;;;;;0.00;0.00;;;;;18.70;46.33;99594.06;5066268;27;51178;-51
2021/11/02 04:30:01;;;;;;;;;0.75;0.00;;;;;18.70;46.28;99591.31;4994845;28;51752;-44
2021/11/02 04:43:48;;;;;;;;;0.00;0.00;;;;;18.68;46.13;99594.31;4994652;28;51346;-48
2021/11/02 05:56:18;;;;;;;;;0.00;0.00;;;;;18.64;46.24;99611.44;5076727;28;51026;-47
2021/11/02 06:01:58;;;;;;;;;2.00;0.00;;;;;18.63;46.42;99609.78;5077091;27;51086;-48
2021/11/02 06:07:09;;;;;;;;;1.00;0.00;;;;;18.64;46.25;99608.69;5075068;27;51534;-43
2021/11/02 06:09:53;;;;;;;;;0.00;0.00;;;;;18.64;46.25;99608.69;5076630;27;51265;-47
2021/11/02 06:29:01;;;;;;;;;0.00;0.00;;;;;18.63;46.24;99620.75;4993453;28;51284;-45
2021/11/02 06:31:38;;;;;;;;;0.00;0.00;;;;;18.62;46.16;99624.56;4993462;28;50967;-49
2021/11/02 06:34:16;;;;;;;;;0.00;0.00;;;;;18.62;46.18;99635.53;4992705;28;51069;-49
2021/11/02 07:18:56;;;;;;;;;0.00;0.00;;;;;18.61;45.76;99675.00;4992684;28;50973;-49
2021/11/02 07:21:28;;;;;;;;;0.00;0.00;;;;;18.61;46.13;99678.59;4992424;28;51038;-47
2021/11/02 07:24:07;;;;;;;;;0.00;0.00;;;;;18.60;46.17;99678.84;4992761;28;51012;-50
2021/11/02 08:45:10;;;;;;;;;0.25;0.25;;;;;18.59;45.94;99748.47;4994504;28;51075;-46
2021/11/02 08:47:47;;;;;;;;;1.00;1.00;;;;;18.58;46.07;99747.66;4994153;28;51040;-43
2021/11/02 08:50:14;;;;;;;;;1.75;1.00;;;;;18.59;46.04;99753.97;4994672;28;51038;-48
2021/11/02 08:52:49;;;;;;;;;0.50;0.50;;;;;18.59;46.26;99753.97;4994134;28;51838;-48
2021/11/02 08:55:15;;;;;;;;;4.25;0.25;;;;;18.59;46.12;99754.78;4994282;28;51019;-47
2021/11/02 08:57:41;;;;;;;;;1.00;1.00;;;;;18.59;46.01;99756.72;4994732;28;51102;-45
2021/11/02 09:00:07;;;;;;;;;1.00;1.00;;;;;18.60;45.87;99766.59;4994671;28;51008;-46
2021/11/02 09:02:36;;;;;;;;;0.75;0.75;;;;;18.60;45.97;99758.38;4994009;28;51139;-43
2021/11/02 09:05:10;;;;;;;;;0.00;0.00;;;;;18.60;45.87;99764.69;4994554;28;51273;-45
2021/11/02 09:07:38;;;;;;;;;0.00;0.00;;;;;18.61;46.11;99760.03;4992838;28;51052;-42
2021/11/02 09:10:22;;;;;;;;;1.00;1.00;;;;;18.62;45.92;99761.72;4994523;28;51346;-46
2021/11/02 09:12:53;;;;;;;;;1.00;1.00;;;;;18.61;45.97;99758.13;4993968;28;52034;-45
2021/11/02 09:15:29;;;;;;;;;3.75;1.25;;;;;18.62;46.06;99748.81;4994358;28;51001;-43
2021/11/02 09:17:57;;;;;;;;;4.00;1.00;;;;;18.63;45.94;99755.97;4993868;28;51091;-45
2021/11/02 09:20:24;;;;;;;;;2.00;0.00;;;;;18.65;45.96;99747.53;4992996;28;51194;-42
2021/11/02 09:22:50;;;;;;;;;1.00;1.00;;;;;18.66;46.46;99752.00;4993966;28;52070;-48
2021/11/02 09:25:17;;;;;;;;;0.50;0.50;;;;;18.68;45.94;99753.41;4994023;28;51195;-46
2021/11/02 09:27:44;;;;;;;;;2.25;1.00;;;;;18.69;45.83;99748.75;5059901;28;51336;-44
2021/11/02 09:30:11;;;;;;;;;0.75;0.75;;;;;18.68;45.90;99750.66;5077464;27;50993;-46
2021/11/02 09:32:42;;;;;;;;;0.00;0.00;;;;;18.70;45.81;99755.91;5076616;27;51186;-50
2021/11/02 09:35:08;;;;;;;;;1.75;1.00;;;;;18.72;45.62;99759.25;5076608;27;51069;-45
2021/11/02 09:37:35;;;;;;;;;1.00;1.00;;;;;18.74;45.91;99754.34;5075841;28;51215;-46
2021/11/02 09:40:28;;;;;;;;;1.00;1.00;;;;;18.74;45.70;99755.19;5076007;28;51176;-48
2021/11/02 09:43:05;;;;;;;;;2.75;2.75;;;;;18.75;45.69;99753.28;5076978;27;51955;-48
2021/11/02 09:45:42;;;;;;;;;2.25;0.75;;;;;18.77;45.61;99750.31;5076806;27;51122;-47
2021/11/02 09:48:32;;;;;;;;;1.00;1.00;;;;;18.77;45.81;99756.66;5076366;27;51235;-47
2021/11/02 09:51:22;;;;;;;;;1.00;1.00;;;;;18.80;45.71;99758.06;5077171;27;50944;-45
2021/11/02 09:54:26;;;;;;;;;0.75;0.75;;;;;18.81;45.31;99760.59;5076816;28;51066;-46
2021/11/02 09:57:03;;;;;;;;;2.50;1.75;;;;;18.81;45.72;99766.06;5076998;27;51406;-51
2021/11/02 09:59:57;;;;;;;;;2.25;2.00;;;;;18.84;45.49;99759.25;5076690;27;51155;-45
2021/11/02 10:02:40;;;;;;;;;2.00;0.00;;;;;18.85;45.74;99764.50;5077109;27;51109;-45
2021/11/02 10:05:25;;;;;;;;;0.00;0.00;;;;;18.87;45.64;99767.88;5076443;27;50971;-46
2021/11/02 10:08:10;;;;;;;;;1.00;1.00;;;;;18.90;45.42;99772.88;5076224;27;51211;-47
2021/11/02 10:10:51;;;;;;;;;0.25;0.25;;;;;18.91;45.46;99771.81;5076293;27;51116;-47
2021/11/02 10:13:47;;;;;;;;;2.00;2.00;;;;;18.92;45.15;99769.91;5076377;28;51036;-48
2021/11/02 10:16:33;;;;;;;;;1.25;1.00;;;;;18.93;45.44;99777.88;5075995;27;51151;-48
2021/11/02 10:19:28;;;;;;;;;1.00;1.00;;;;;18.94;45.43;99784.22;5074679;28;51015;-50
2021/11/02 10:22:18;;;;;;;;;0.25;0.00;;;;;18.95;45.20;99783.97;5076715;27;50990;-45
2021/11/02 10:25:15;;;;;;;;;1.50;1.50;;;;;18.95;45.55;99788.63;5076540;27;51144;-47
2021/11/02 10:27:49;;;;;;;;;0.00;0.00;;;;;18.95;45.36;99794.94;5010484;28;51968;-48
2021/11/02 10:30:38;;;;;;;;;2.75;1.00;;;;;18.97;45.26;99798.31;4993030;28;51276;-44
2021/11/02 10:33:10;;;;;;;;;0.75;0.75;;;;;18.98;45.35;99790.91;4992838;28;51045;-46
2021/11/02 10:35:53;;;;;;;;;1.75;1.00;;;;;18.98;45.34;99793.66;4991435;28;51388;-44
2021/11/02 10:38:44;;;;;;;;;0.00;0.00;;;;;18.99;45.25;99796.16;4992977;28;51218;-48
2021/11/02 10:41:14;;;;;;;;;0.75;0.75;;;;;19.00;45.19;99803.31;4993074;28;51064;-45
2021/11/02 10:43:50;;;;;;;;;0.50;0.50;;;;;19.01;45.09;99798.66;4992946;28;50926;-49
2021/11/02 10:46:16;;;;;;;;;1.00;1.00;;;;;19.00;45.34;99802.47;4993148;28;51187;-47
2021/11/02 10:48:47;;;;;;;;;1.00;1.00;;;;;19.00;45.17;99795.06;4992391;28;51246;-46
2021/11/02 10:51:24;;;;;;;;;0.75;0.00;;;;;18.99;45.29;99801.66;4992850;28;51101;-44
2021/11/02 10:54:11;;;;;;;;;1.00;1.00;;;;;18.98;45.26;99797.22;4992961;28;50979;-47
2021/11/02 10:57:02;;;;;;;;;0.75;0.75;;;;;18.98;45.27;99788.16;4992136;28;51628;-49
2021/11/02 10:59:30;;;;;;;;;0.00;0.00;;;;;18.97;45.01;99787.34;5020039;28;51311;-45
2021/11/02 11:01:57;;;;;;;;;2.25;0.00;;;;;18.98;45.10;99793.66;4992433;28;51294;-47
2021/11/02 11:04:23;;;;;;;;;1.00;1.00;;;;;18.99;45.07;99798.06;4992409;28;51038;-44
2021/11/02 11:06:55;;;;;;;;;0.50;0.25;;;;;18.98;45.21;99794.50;4993178;28;51079;-44
2021/11/02 11:09:21;;;;;;;;;1.00;1.00;;;;;19.00;45.37;99788.75;4992248;28;51882;-49
2021/11/02 11:11:55;;;;;;;;;3.00;0.00;;;;;19.00;45.15;99789.59;4991844;28;51167;-50
2021/11/02 11:14:28;;;;;;;;;0.75;0.75;;;;;19.00;45.05;99786.00;4992212;28;51109;-46
2021/11/02 11:16:56;;;;;;;;;0.50;0.50;;;;;19.01;45.29;99782.19;4991859;28;51264;-44
2021/11/02 11:19:24;;;;;;;;;0.50;0.50;;;;;19.01;45.21;99787.69;4991787;28;50986;-48
2021/11/02 11:21:50;;;;;;;;;0.75;0.75;;;;;19.01;45.34;99776.69;4992183;28;51278;-45
2021/11/02 11:24:51;;;;;;;;;1.00;1.00;;;;;19.02;44.92;99772.88;4992005;28;51007;-49
2021/11/02 11:27:18;;;;;;;;;1.75;1.00;;;;;19.02;45.25;99770.13;5045744;28;51035;-45
2021/11/02 11:29:47;;;;;;;;;0.00;0.00;;;;;19.00;45.25;99767.63;5074842;28;51845;-47
2021/11/02 11:32:15;;;;;;;;;1.00;1.00;;;;;19.01;45.20;99763.81;5074910;28;51142;-44
2021/11/02 11:34:44;;;;;;;;;2.00;2.00;;;;;19.01;45.29;99765.72;5074649;27;51080;-47
2021/11/02 11:37:12;;;;;;;;;0.50;0.50;;;;;19.01;45.26;99762.97;5073789;28;51604;-44
2021/11/02 11:39:38;;;;;;;;;2.00;0.75;;;;;19.01;45.45;99769.31;5074307;27;51844;-46
2021/11/02 11:42:04;;;;;;;;;1.00;1.00;;;;;19.01;45.16;99763.81;5074803;27;51160;-47
2021/11/02 11:44:30;;;;;;;;;1.00;1.00;;;;;19.01;45.16;99763.81;5075088;28;51032;-45
2021/11/02 11:47:07;;;;;;;;;1.50;1.50;;;;;19.02;45.26;99767.38;5074467;27;51329;-47
2021/11/02 11:49:34;;;;;;;;;0.50;0.50;;;;;19.02;45.30;99761.91;5074269;27;51127;-53
2021/11/02 11:52:01;;;;;;;;;1.00;1.00;;;;;19.03;45.33;99760.81;5074524;27;51058;-43
2021/11/02 11:54:53;;;;;;;;;1.50;0.50;;;;;19.05;45.25;99764.16;5074671;28;51012;-47
2021/11/02 11:57:29;;;;;;;;;0.25;0.25;;;;;19.03;45.30;99756.16;5074736;27;51329;-45
2021/11/02 12:00:06;;;;;;;;;0.00;0.00;;;;;19.03;45.28;99750.69;5074459;27;51092;-46
2021/11/02 12:02:46;;;;;;;;;0.75;0.00;;;;;19.03;45.47;99747.09;5074349;27;50953;-46
2021/11/02 12:05:17;;;;;;;;;0.75;0.25;;;;;19.03;45.21;99747.94;5074500;27;50995;-46
2021/11/02 12:08:15;;;;;;;;;0.00;0.00;;;;;19.03;45.15;99750.69;5077115;27;51357;-45
2021/11/02 12:10:42;;;;;;;;;0.00;0.00;;;;;19.03;45.29;99749.84;5077760;27;51238;-48
2021/11/02 12:13:10;;;;;;;;;1.50;1.00;;;;;19.03;45.16;99742.44;5077928;27;50984;-44
2021/11/02 12:15:40;;;;;;;;;0.25;0.25;;;;;19.04;45.08;99746.03;5078128;27;51044;-51
2021/11/02 12:18:07;;;;;;;;;1.50;0.25;;;;;19.03;45.08;99736.97;5077553;27;51194;-48
2021/11/02 12:20:37;;;;;;;;;1.00;1.00;;;;;19.04;45.10;99743.28;5077622;27;51015;-47
2021/11/02 12:23:17;;;;;;;;;0.50;0.50;;;;;19.03;45.33;99734.22;5077763;27;51065;-47
2021/11/02 12:25:53;;;;;;;;;0.50;0.50;;;;;19.03;45.07;99738.88;5076128;27;51121;-49
2021/11/02 12:28:29;;;;;;;;;1.00;1.00;;;;;19.03;45.33;99739.69;4955131;28;50999;-46
2021/11/02 12:31:01;;;;;;;;;0.25;0.00;;;;;19.03;45.14;99733.38;4954938;28;51038;-51
2021/11/02 12:33:27;;;;;;;;;2.25;0.00;;;;;19.03;45.32;99738.88;4955121;28;51121;-46
2021/11/02 12:35:54;;;;;;;;;1.00;1.00;;;;;19.03;45.17;99738.88;4955240;28;51303;-49
2021/11/02 12:38:29;;;;;;;;;1.00;1.00;;;;;19.03;45.29;99736.13;4955235;28;51038;-46
2021/11/02 12:40:55;;;;;;;;;2.25;1.00;;;;;19.02;45.15;99723.47;4955028;28;52963;-44
2021/11/02 12:43:26;;;;;;;;;1.00;1.00;;;;;19.02;44.99;99721.56;4954849;28;50935;-46
2021/11/02 12:45:54;;;;;;;;;2.00;2.00;;;;;19.01;45.23;99722.66;4955041;28;51118;-44
2021/11/02 12:48:20;;;;;;;;;3.25;1.00;;;;;19.03;45.21;99731.47;4954743;28;51061;-47
2021/11/02 12:50:48;;;;;;;;;0.75;0.75;;;;;19.02;45.29;99718.81;4954783;28;51893;-45
2021/11/02 12:53:15;;;;;;;;;1.75;1.75;;;;;19.02;45.36;99721.56;4955008;28;51288;-46
2021/11/02 12:55:41;;;;;;;;;1.00;1.00;;;;;19.03;45.07;99716.91;4954649;28;51099;-47
2021/11/02 12:58:09;;;;;;;;;2.25;1.00;;;;;19.02;45.19;99713.34;4954713;28;51315;-45
2021/11/02 13:00:53;;;;;;;;;1.00;1.00;;;;;19.02;45.18;99709.75;4954560;28;51920;-45
2021/11/02 13:03:24;;;;;;;;;3.75;1.25;;;;;19.02;45.38;99707.84;4954608;28;51232;-47
2021/11/02 13:05:56;;;;;;;;;1.00;0.75;;;;;19.01;44.97;99711.66;4955196;28;51158;-47
2021/11/02 13:08:53;;;;;;;;;1.25;1.00;;;;;19.01;45.22;99714.41;4955001;28;51359;-49
2021/11/02 13:11:21;;;;;;;;;1.25;1.00;;;;;19.01;45.12;99703.44;4958696;28;51332;-46
2021/11/02 13:14:07;;;;;;;;;2.00;1.00;;;;;19.01;45.31;99695.19;4954085;28;51045;-43
2021/11/02 13:17:00;;;;;;;;;2.00;2.00;;;;;19.02;45.29;99696.03;4954655;28;51112;-43
2021/11/02 13:19:56;;;;;;;;;1.75;1.75;;;;;19.01;45.10;99697.94;4954005;28;51241;-42
2021/11/02 13:22:24;;;;;;;;;0.50;0.50;;;;;19.01;45.25;99695.19;4969270;28;52722;-45
2021/11/02 13:25:09;;;;;;;;;1.75;1.00;;;;;19.01;44.91;99700.69;4954404;28;51104;-49
2021/11/02 13:27:45;;;;;;;;;0.50;0.25;;;;;19.00;45.35;99690.78;4982861;28;51097;-46
2021/11/02 13:30:36;;;;;;;;;1.50;1.00;;;;;19.01;45.12;99699.84;4993778;28;50969;-45
2021/11/02 13:33:05;;;;;;;;;5.00;2.00;;;;;19.00;44.89;99699.03;4992967;28;51839;-46
2021/11/02 13:35:38;;;;;;;;;1.50;1.50;;;;;19.00;45.32;99699.03;4992712;28;51005;-47
2021/11/02 13:38:28;;;;;;;;;1.00;1.00;;;;;19.01;45.18;99691.63;4993549;28;50966;-45
2021/11/02 13:40:55;;;;;;;;;3.00;2.50;;;;;19.00;45.11;99681.72;4993372;28;51071;-43
2021/11/02 13:43:28;;;;;;;;;2.00;2.00;;;;;19.00;45.27;99677.06;4992639;28;51082;-47
2021/11/02 13:45:54;;;;;;;;;2.25;2.00;;;;;19.00;45.08;99682.56;4992519;28;51439;-49
2021/11/02 13:48:20;;;;;;;;;1.00;1.00;;;;;19.00;45.09;99682.56;4991269;28;51087;-48
2021/11/02 13:50:47;;;;;;;;;1.00;1.00;;;;;19.00;45.03;99677.06;4993465;28;51169;-44
2021/11/02 13:53:12;;;;;;;;;3.00;1.00;;;;;19.00;45.01;99679.81;4992989;28;51047;-49
2021/11/02 13:55:38;;;;;;;;;4.25;1.50;;;;;19.00;45.24;99671.56;4992987;28;51057;-47
2021/11/02 13:58:04;;;;;;;;;1.00;1.00;;;;;19.01;45.15;99675.16;4992567;28;51284;-47
2021/11/02 14:00:31;;;;;;;;;2.00;2.00;;;;;19.00;45.08;99674.31;4993326;28;51029;-46
2021/11/02 14:03:02;;;;;;;;;2.00;1.25;;;;;19.01;45.39;99675.16;4992329;28;52008;-47
2021/11/02 14:05:29;;;;;;;;;1.00;1.00;;;;;19.00;45.07;99676.22;4992948;28;51094;-44
2021/11/02 14:07:56;;;;;;;;;2.00;2.00;;;;;19.00;45.23;99684.47;4992575;28;51073;-49
2021/11/02 14:10:28;;;;;;;;;2.75;1.00;;;;;18.99;45.03;99683.63;4992839;28;51334;-46
2021/11/02 14:12:54;;;;;;;;;1.75;1.75;;;;;18.99;44.97;99680.88;4992311;28;51722;-47
2021/11/02 14:15:22;;;;;;;;;0.25;0.25;;;;;19.01;45.04;99680.66;4993092;28;51171;-49
2021/11/02 14:18:14;;;;;;;;;1.25;1.25;;;;;18.99;44.97;99667.16;4992385;28;51119;-48
2021/11/02 14:20:49;;;;;;;;;0.25;0.25;;;;;18.99;45.06;99669.91;4993331;28;51081;-48
2021/11/02 14:23:31;;;;;;;;;4.00;1.00;;;;;18.98;45.13;99668.25;4992477;28;51948;-48
2021/11/02 14:26:19;;;;;;;;;2.25;2.25;;;;;18.99;44.92;99672.66;4996773;28;51134;-48
2021/11/02 14:28:50;;;;;;;;;2.50;1.25;;;;;18.98;44.84;99670.16;5075580;27;51073;-48
2021/11/02 14:31:37;;;;;;;;;2.50;1.50;;;;;18.98;44.96;99673.72;5074201;27;51034;-47
2021/11/02 14:34:07;;;;;;;;;3.00;1.00;;;;;18.97;44.77;99663.84;5074839;27;51822;-46
2021/11/02 14:36:41;;;;;;;;;3.25;3.00;;;;;18.99;45.07;99667.16;5075239;27;51717;-48
2021/11/02 14:39:13;;;;;;;;;1.00;1.00;;;;;18.99;45.09;99677.31;5075081;27;51081;-49
2021/11/02 14:41:47;;;;;;;;;1.00;1.00;;;;;18.98;45.11;99673.72;5075247;27;51132;-47
2021/11/02 14:44:26;;;;;;;;;1.00;1.00;;;;;18.99;45.04;99671.81;5073345;28;53912;-48
2021/11/02 14:46:59;;;;;;;;;1.25;1.00;;;;;18.98;45.23;99668.25;5074686;27;51087;-43
2021/11/02 14:49:27;;;;;;;;;2.00;2.00;;;;;18.98;45.00;99667.41;5074896;27;50980;-44
2021/11/02 14:51:58;;;;;;;;;2.00;1.50;;;;;18.98;45.27;99678.38;5075109;28;51101;-44
2021/11/02 14:54:30;;;;;;;;;0.75;0.75;;;;;18.97;45.01;99672.06;5074662;27;51966;-45
2021/11/02 14:56:57;;;;;;;;;1.25;0.75;;;;;18.97;45.16;99683.03;5075076;27;51391;-45
2021/11/02 14:59:43;;;;;;;;;1.00;1.00;;;;;18.98;45.02;99675.66;5074967;27;51178;-46
2021/11/02 15:02:15;;;;;;;;;1.00;1.00;;;;;18.96;45.45;99670.38;5074375;28;51248;-45
2021/11/02 15:04:42;;;;;;;;;1.75;1.75;;;;;18.96;45.04;99670.38;5074267;27;51174;-44
2021/11/02 15:07:08;;;;;;;;;2.50;2.00;;;;;18.96;45.10;99670.38;5074861;28;51322;-45
2021/11/02 15:09:37;;;;;;;;;2.00;1.00;;;;;18.97;45.01;99671.22;5073430;28;51104;-49
2021/11/02 15:12:04;;;;;;;;;1.00;1.00;;;;;18.97;45.07;99671.22;5074970;27;50936;-47
2021/11/02 15:14:33;;;;;;;;;1.50;1.50;;;;;18.97;45.23;99668.50;5074498;27;52011;-49
2021/11/02 15:17:04;;;;;;;;;2.00;2.00;;;;;18.96;44.99;99664.88;5074766;27;51313;-46
2021/11/02 15:19:32;;;;;;;;;1.00;1.00;;;;;18.95;45.10;99668.69;5075070;28;51091;-50
2021/11/02 15:22:05;;;;;;;;;1.00;1.00;;;;;18.95;45.22;99665.97;5075339;27;50966;-51
2021/11/02 15:24:37;;;;;;;;;0.50;0.50;;;;;18.94;45.25;99658.81;5074449;27;51945;-44
2021/11/02 15:27:07;;;;;;;;;1.75;1.25;;;;;18.94;45.14;99664.28;5032341;27;51423;-46
2021/11/02 15:29:38;;;;;;;;;2.00;1.00;;;;;18.94;45.07;99661.56;4991565;28;51103;-44
2021/11/02 15:32:21;;;;;;;;;1.00;1.00;;;;;18.95;45.35;99651.41;4992447;28;51302;-45
2021/11/02 15:34:53;;;;;;;;;1.25;1.25;;;;;18.94;44.72;99653.31;4991517;28;51140;-47
2021/11/02 15:37:25;;;;;;;;;1.75;1.75;;;;;18.94;45.05;99653.31;4991596;28;51114;-52
2021/11/02 15:40:05;;;;;;;;;1.00;1.00;;;;;18.93;45.13;99654.41;4991939;28;51154;-47
2021/11/02 15:42:36;;;;;;;;;2.75;1.00;;;;;18.94;45.18;99652.47;4993396;28;51170;-44
2021/11/02 15:45:19;;;;;;;;;1.00;1.00;;;;;18.93;45.10;99653.56;4994485;28;51757;-48
2021/11/02 15:47:48;;;;;;;;;0.75;0.75;;;;;18.93;44.96;99661.78;4994380;28;51020;-48
2021/11/02 15:50:26;;;;;;;;;1.25;1.25;;;;;18.91;44.99;99648.31;4994484;28;51087;-44
2021/11/02 15:52:57;;;;;;;;;1.50;1.50;;;;;18.93;45.04;99651.66;4994792;28;50986;-44
2021/11/02 15:55:24;;;;;;;;;1.25;1.00;;;;;18.91;44.84;99645.56;4994585;28;51049;-49
2021/11/02 15:57:55;;;;;;;;;1.00;1.00;;;;;18.91;45.21;99645.56;4994455;28;51067;-43
2021/11/02 16:00:29;;;;;;;;;1.00;1.00;;;;;18.91;44.98;99653.81;4994914;28;51025;-48
2021/11/02 16:02:55;;;;;;;;;1.75;1.75;;;;;18.91;45.13;99651.06;4994337;28;51123;-44
2021/11/02 16:05:23;;;;;;;;;2.00;1.00;;;;;18.91;45.08;99644.75;4994872;28;51053;-48
2021/11/02 16:07:50;;;;;;;;;2.00;0.75;;;;;18.91;45.03;99640.09;4994646;28;51295;-48
2021/11/02 16:10:17;;;;;;;;;1.00;1.00;;;;;18.89;44.97;99642.25;4994931;28;51227;-46
2021/11/02 16:12:46;;;;;;;;;1.00;1.00;;;;;18.90;44.97;99643.91;4994738;28;51136;-46
2021/11/02 16:15:25;;;;;;;;;2.00;2.00;;;;;18.89;44.83;99636.75;4994099;27;52377;-45
2021/11/02 16:17:59;;;;;;;;;1.00;0.75;;;;;18.90;45.14;99638.41;4993925;28;51058;-45
2021/11/02 16:20:28;;;;;;;;;1.00;1.00;;;;;18.90;44.91;99638.41;4994613;27;51043;-46
2021/11/02 16:23:00;;;;;;;;;2.00;2.00;;;;;18.90;45.12;99637.59;4994704;28;51222;-49
2021/11/02 16:25:28;;;;;;;;;1.25;1.25;;;;;18.88;45.14;99629.59;4994511;28;51808;-47
2021/11/02 16:27:58;;;;;;;;;1.00;1.00;;;;;18.89;45.23;99635.91;5065858;28;51016;-47
2021/11/02 16:30:28;;;;;;;;;2.50;1.00;;;;;18.88;45.27;99637.84;5077797;27;50977;-48
2021/11/02 16:32:55;;;;;;;;;1.75;1.75;;;;;18.88;45.25;99634.25;5077627;27;51351;-42
2021/11/02 16:35:36;;;;;;;;;1.75;1.25;;;;;18.88;45.04;99635.09;5077282;27;51854;-48
2021/11/02 16:38:26;;;;;;;;;2.25;1.50;;;;;18.88;45.23;99631.50;5078011;28;51455;-49
2021/11/02 16:41:03;;;;;;;;;0.50;0.50;;;;;18.88;45.03;99631.50;5077734;27;51124;-46
2021/11/02 16:43:34;;;;;;;;;2.25;1.25;;;;;18.87;45.17;99630.69;5078097;27;51058;-48
2021/11/02 16:46:02;;;;;;;;;1.50;1.50;;;;;18.86;44.97;99623.53;5077554;27;51007;-47